Time;durP1;ratioP1;P1;durP2;ratioP2;P2;SDS_P1;SDS_P2;PMS_P1;PMS_P2;Temp;Humidity;BMP_temperature;BMP_pressure;BME280_temperature;BME280_humidity;BME280_pressure;Samples;Min_cycle;Max_cycle;Signal;HPM_P1;HPM_P2
2023/05/23 00:02:22;;;;;;;4.82;3.97;;;;;;;18.09;70.69;99528.53;10382285;28;20050;-69
2023/05/23 00:07:25;;;;;;;8.25;4.95;;;;;;;17.97;72.27;99527.56;10380221;28;20380;-69
2023/05/23 00:12:26;;;;;;;8.60;5.40;;;;;;;17.97;75.53;99526.72;10379917;28;20072;-69
2023/05/23 00:17:28;;;;;;;5.43;4.93;;;;;;;18.03;76.01;99524.50;10379862;28;20038;-69
2023/05/23 00:22:30;;;;;;;4.63;4.22;;;;;;;18.36;75.32;99525.72;10382625;28;20400;-68
2023/05/23 00:27:32;;;;;;;5.13;4.72;;;;;;;18.28;76.45;99538.69;10379398;28;20498;-68
2023/05/23 00:32:34;;;;;;;24.50;9.65;;;;;;;17.85;91.33;99555.03;10379077;28;20056;-66
2023/05/23 00:37:37;;;;;;;17.23;8.13;;;;;;;17.49;100.00;99564.56;10378879;28;20046;-67
2023/05/23 00:42:38;;;;;;;9.82;8.77;;;;;;;17.36;100.00;99561.03;10377632;28;20045;-67
2023/05/23 00:47:41;;;;;;;12.90;10.93;;;;;;;17.00;100.00;99562.53;10377317;28;20472;-67
2023/05/23 00:52:45;;;;;;;10.63;9.02;;;;;;;17.05;100.00;99549.78;10376785;28;20057;-67
2023/05/23 00:57:47;;;;;;;8.57;7.78;;;;;;;16.97;100.00;99536.16;10378767;28;20050;-67
2023/05/23 01:02:50;;;;;;;7.07;6.43;;;;;;;17.05;100.00;99533.84;10377984;28;20061;-67
2023/05/23 01:07:53;;;;;;;12.38;8.35;;;;;;;17.09;100.00;99527.38;10378251;28;20125;-67
2023/05/23 01:13:01;;;;;;;8.43;7.22;;;;;;;16.98;100.00;99535.19;10378504;28;20523;-67
2023/05/23 01:18:13;;;;;;;10.27;8.57;;;;;;;17.34;100.00;99549.63;10378230;28;20038;-67
2023/05/23 01:23:27;;;;;;;9.90;9.05;;;;;;;17.10;100.00;99547.69;10377121;28;20046;-67
2023/05/23 01:28:39;;;;;;;9.90;9.02;;;;;;;16.98;100.00;99551.13;10378406;28;20077;-67
2023/05/23 01:33:42;;;;;;;9.63;8.82;;;;;;;16.79;100.00;99548.00;10376064;28;20042;-67
2023/05/23 01:38:44;;;;;;;8.60;7.90;;;;;;;16.80;100.00;99557.66;10375852;28;20073;-67
2023/05/23 01:43:46;;;;;;;9.20;8.30;;;;;;;16.64;100.00;99555.09;10376803;28;20077;-67
2023/05/23 01:48:49;;;;;;;8.55;7.85;;;;;;;16.58;100.00;99542.22;10375647;28;20049;-68
2023/05/23 01:53:51;;;;;;;8.68;7.88;;;;;;;16.55;100.00;99547.72;10374630;28;20058;-68
2023/05/23 01:58:53;;;;;;;9.52;8.82;;;;;;;16.41;100.00;99545.94;10374882;28;20045;-68
2023/05/23 02:03:55;;;;;;;8.88;6.20;;;;;;;16.77;100.00;99544.56;10375058;28;20573;-68
2023/05/23 02:08:57;;;;;;;7.88;7.38;;;;;;;16.64;100.00;99545.34;10374808;28;20046;-68
2023/05/23 02:13:59;;;;;;;7.45;6.82;;;;;;;16.67;100.00;99530.16;10374769;28;20056;-68
2023/05/23 02:19:02;;;;;;;8.23;7.43;;;;;;;16.65;100.00;99523.16;10375770;28;20049;-68
2023/05/23 02:24:04;;;;;;;6.18;5.57;;;;;;;16.81;100.00;99503.59;10374279;28;20038;-68
2023/05/23 02:29:06;;;;;;;7.32;6.63;;;;;;;16.50;100.00;99502.91;10374804;28;20108;-68
2023/05/23 02:34:07;;;;;;;6.00;5.60;;;;;;;16.45;100.00;99506.81;10374706;28;20462;-68
2023/05/23 02:39:09;;;;;;;5.80;5.07;;;;;;;16.71;100.00;99482.09;10373718;28;20049;-68
2023/05/23 02:44:11;;;;;;;4.93;4.63;;;;;;;16.41;100.00;99490.25;10373598;28;20587;-68
2023/05/23 02:49:13;;;;;;;6.25;5.75;;;;;;;16.32;100.00;99497.00;10374094;28;20119;-68
2023/05/23 02:54:15;;;;;;;5.55;5.13;;;;;;;16.33;100.00;99477.47;10374395;28;20157;-68
2023/05/23 02:59:17;;;;;;;6.13;5.30;;;;;;;16.29;100.00;99459.19;10373569;28;20054;-68
2023/05/23 03:04:20;;;;;;;7.70;6.47;;;;;;;16.46;100.00;99453.66;10373504;28;20053;-68
2023/05/23 03:09:21;;;;;;;5.85;5.43;;;;;;;16.49;100.00;99450.81;10373500;28;20132;-68
2023/05/23 03:14:23;;;;;;;7.80;7.20;;;;;;;16.19;100.00;99440.38;10374292;28;20499;-68
2023/05/23 03:19:25;;;;;;;7.05;6.38;;;;;;;16.35;100.00;99446.41;10375634;28;20045;-68
2023/05/23 03:24:27;;;;;;;8.32;7.45;;;;;;;16.31;100.00;99449.38;10373344;28;20057;-68
2023/05/23 03:29:29;;;;;;;5.90;5.50;;;;;;;16.08;100.00;99446.38;10375502;28;20073;-68
2023/05/23 03:34:32;;;;;;;6.20;5.78;;;;;;;16.19;100.00;99442.19;10377407;28;20418;-68
2023/05/23 03:39:34;;;;;;;6.68;6.07;;;;;;;16.26;100.00;99444.34;10383748;28;20045;-68
2023/05/23 03:44:39;;;;;;;5.30;4.88;;;;;;;16.43;100.00;99435.31;10381631;28;20038;-68
2023/05/23 03:49:41;;;;;;;5.35;4.97;;;;;;;16.19;100.00;99436.88;10380186;28;20525;-68
2023/05/23 03:54:43;;;;;;;5.38;4.90;;;;;;;16.23;100.00;99444.53;10380230;28;20074;-68
2023/05/23 03:59:45;;;;;;;6.53;5.88;;;;;;;16.02;100.00;99469.78;10381882;28;20052;-69
2023/05/23 04:04:47;;;;;;;7.20;6.63;;;;;;;15.98;100.00;99465.59;10379544;28;20503;-69
2023/05/23 04:09:49;;;;;;;5.30;4.90;;;;;;;16.06;100.00;99480.09;10379638;28;20041;-69
2023/05/23 04:14:51;;;;;;;6.30;5.80;;;;;;;16.06;100.00;99482.72;10380533;28;20046;-69
2023/05/23 04:19:54;;;;;;;7.82;7.22;;;;;;;16.14;100.00;99484.91;10379656;28;20046;-69
2023/05/23 04:24:56;;;;;;;7.03;6.63;;;;;;;16.16;100.00;99480.38;10382202;28;20041;-69
2023/05/23 04:30:02;;;;;;;6.70;6.10;;;;;;;16.21;100.00;99485.38;10379531;28;20070;-69
2023/05/23 04:35:06;;;;;;;5.00;4.55;;;;;;;16.36;100.00;99498.50;10378951;28;20062;-69
2023/05/23 04:40:12;;;;;;;6.80;6.30;;;;;;;16.31;100.00;99495.28;10378672;28;20046;-69
2023/05/23 04:45:32;;;;;;;6.53;5.13;;;;;;;16.27;100.00;99495.59;10379031;28;20042;-69
2023/05/23 04:50:46;;;;;;;5.78;5.38;;;;;;;16.42;100.00;99491.94;10378173;28;20463;-69
2023/05/23 04:55:48;;;;;;;5.75;5.32;;;;;;;16.54;100.00;99500.91;10378789;28;20076;-69
2023/05/23 05:00:52;;;;;;;6.90;6.40;;;;;;;16.53;100.00;99496.56;10378944;28;20054;-70
2023/05/23 05:05:55;;;;;;;8.05;7.45;;;;;;;16.27;100.00;99500.91;10380392;28;20061;-69
2023/05/23 05:10:57;;;;;;;8.40;7.57;;;;;;;16.64;100.00;99502.00;10380937;28;20045;-69
2023/05/23 05:15:58;;;;;;;7.65;7.15;;;;;;;16.70;100.00;99512.25;10381210;28;20048;-69
2023/05/23 05:21:01;;;;;;;8.80;8.07;;;;;;;16.92;100.00;99513.53;10378832;28;20045;-69
2023/05/23 05:26:04;;;;;;;9.90;9.20;;;;;;;17.01;100.00;99511.13;10377701;28;20133;-69
2023/05/23 05:31:06;;;;;;;9.20;8.57;;;;;;;17.21;100.00;99514.22;10379158;28;20037;-70
2023/05/23 05:36:09;;;;;;;8.93;8.32;;;;;;;17.00;100.00;99509.41;10376362;28;20470;-68
2023/05/23 05:41:12;;;;;;;10.88;10.07;;;;;;;17.25;100.00;99507.75;10377196;28;20073;-68
2023/05/23 05:46:19;;;;;;;11.27;10.57;;;;;;;17.22;100.00;99513.25;10376442;28;20411;-68
2023/05/23 05:51:21;;;;;;;12.75;11.85;;;;;;;17.21;100.00;99515.06;10377803;28;20046;-67
2023/05/23 05:56:23;;;;;;;14.27;13.38;;;;;;;17.48;100.00;99516.81;10375004;28;20048;-69
2023/05/23 06:01:25;;;;;;;17.15;15.70;;;;;;;17.69;100.00;99528.63;10376837;28;20499;-69
2023/05/23 06:06:27;;;;;;;19.23;17.70;;;;;;;17.58;100.00;99540.00;10375617;28;20053;-69
2023/05/23 06:11:29;;;;;;;28.05;26.10;;;;;;;17.77;100.00;99536.97;10375166;28;20052;-68
2023/05/23 06:16:32;;;;;;;18.90;17.08;;;;;;;17.83;100.00;99533.88;10376460;28;20069;-69
2023/05/23 06:21:33;;;;;;;17.77;16.67;;;;;;;17.78;100.00;99536.00;10376420;28;20076;-69
2023/05/23 06:26:38;;;;;;;17.52;16.55;;;;;;;17.69;100.00;99538.41;10374367;28;20058;-68
2023/05/23 06:31:40;;;;;;;17.30;16.20;;;;;;;17.54;100.00;99542.97;10374395;28;20053;-68
2023/05/23 06:36:41;;;;;;;17.02;15.60;;;;;;;17.63;100.00;99550.31;10374883;28;20393;-68
2023/05/23 06:41:43;;;;;;;16.88;15.43;;;;;;;17.51;100.00;99549.34;10373879;28;20081;-68
2023/05/23 06:46:45;;;;;;;16.83;15.75;;;;;;;17.54;100.00;99553.63;10373493;28;20052;-68
2023/05/23 06:51:49;;;;;;;16.23;15.05;;;;;;;17.71;100.00;99560.41;10373802;28;20058;-68
2023/05/23 06:56:52;;;;;;;15.00;14.15;;;;;;;17.56;100.00;99563.16;10374850;28;20077;-68
2023/05/23 07:01:54;;;;;;;16.00;15.07;;;;;;;17.78;100.00;99549.28;10373564;28;20050;-69
2023/05/23 07:06:58;;;;;;;14.50;13.40;;;;;;;17.85;100.00;99558.56;10374253;28;20504;-68
2023/05/23 07:12:00;;;;;;;17.02;15.93;;;;;;;18.27;100.00;99558.28;10382642;28;20073;-69
2023/05/23 07:17:02;;;;;;;12.13;11.43;;;;;;;18.20;92.98;99565.88;10380827;28;20042;-69
2023/05/23 07:22:05;;;;;;;12.52;11.80;;;;;;;18.23;96.18;99562.13;10381606;28;20054;-69
2023/05/23 07:27:09;;;;;;;11.27;10.68;;;;;;;18.39;94.27;99576.06;10380255;28;20042;-68
2023/05/23 07:32:12;;;;;;;11.43;10.73;;;;;;;18.40;93.19;99575.94;10380513;28;20050;-68
2023/05/23 07:37:14;;;;;;;12.02;10.95;;;;;;;18.28;93.86;99574.16;10380359;28;20045;-68
2023/05/23 07:42:18;;;;;;;10.48;9.68;;;;;;;18.46;93.85;99552.50;10380755;28;20046;-68
2023/05/23 07:47:20;;;;;;;11.18;10.40;;;;;;;18.94;91.63;99560.56;10381710;28;20403;-69
2023/05/23 07:52:22;;;;;;;9.23;8.63;;;;;;;19.69;86.32;99571.78;10380898;28;20046;-69
2023/05/23 07:57:25;;;;;;;9.88;9.18;;;;;;;19.69;85.48;99569.13;10380058;28;20562;-68
2023/05/23 08:02:27;;;;;;;11.05;10.05;;;;;;;19.88;81.33;99573.91;10379951;28;20042;-69
2023/05/23 08:07:30;;;;;;;10.23;9.52;;;;;;;20.21;81.75;99577.56;10378763;28;20085;-69
2023/05/23 08:12:35;;;;;;;9.38;8.77;;;;;;;20.36;81.92;99574.53;10380015;28;20052;-68
2023/05/23 08:17:45;;;;;;;10.23;9.48;;;;;;;20.52;79.85;99581.34;10379991;28;20041;-69
2023/05/23 08:22:47;;;;;;;10.88;10.18;;;;;;;20.91;75.65;99577.25;10378194;28;20054;-67
2023/05/23 08:27:50;;;;;;;10.85;9.98;;;;;;;20.79;77.83;99588.94;10363327;28;20515;-68
2023/05/23 08:33:11;;;;;;;10.48;9.77;;;;;;;20.50;77.09;99596.63;10380076;28;20049;-68
2023/05/23 08:38:20;;;;;;;10.57;9.60;;;;;;;20.06;76.98;99598.28;10380214;28;20065;-67
2023/05/23 08:43:33;;;;;;;9.88;9.18;;;;;;;20.00;74.72;99612.94;10377324;28;20042;-68
2023/05/23 08:48:37;;;;;;;10.25;9.55;;;;;;;19.65;78.47;99607.63;10377903;28;20042;-68
2023/05/23 08:53:45;;;;;;;11.15;10.55;;;;;;;19.73;80.27;99615.91;10376784;28;20136;-68
2023/05/23 08:58:48;;;;;;;12.68;11.90;;;;;;;19.66;81.50;99606.69;10376808;28;20042;-68
2023/05/23 09:03:53;;;;;;;16.20;14.80;;;;;;;19.68;81.63;99609.25;10376718;28;20050;-68
2023/05/23 09:09:11;;;;;;;15.88;14.65;;;;;;;19.77;80.42;99617.38;10376984;28;20049;-68
2023/05/23 09:14:14;;;;;;;18.42;17.33;;;;;;;19.34;85.82;99622.41;10360581;28;20073;-68
2023/05/23 09:19:17;;;;;;;19.73;18.42;;;;;;;19.25;87.07;99623.94;10377351;28;20046;-68
2023/05/23 09:24:33;;;;;;;23.65;22.05;;;;;;;19.20;85.00;99633.25;10376715;28;20061;-68
2023/05/23 09:29:39;;;;;;;26.45;24.08;;;;;;;19.11;87.36;99632.09;10376723;28;20138;-68
2023/05/23 09:34:55;;;;;;;33.58;30.73;;;;;;;18.59;89.83;99647.34;10375537;28;20057;-69
2023/05/23 09:39:59;;;;;;;34.08;31.17;;;;;;;18.43;91.03;99648.53;10376114;28;20076;-68
2023/05/23 09:45:02;;;;;;;34.90;31.80;;;;;;;18.25;94.96;99656.00;10375217;28;20060;-68
2023/05/23 09:50:07;;;;;;;35.63;32.38;;;;;;;18.18;92.29;99654.72;10375159;28;20052;-68
2023/05/23 09:55:09;;;;;;;33.83;30.73;;;;;;;18.34;94.68;99658.03;10376215;28;20061;-68
2023/05/23 10:00:15;;;;;;;25.63;23.63;;;;;;;18.13;89.30;99671.84;10389690;23;20041;-71
2023/05/23 10:05:40;;;;;;;24.45;22.25;;;;;;;17.84;91.45;99663.22;10373410;28;20081;-71
2023/05/23 10:11:11;;;;;;;20.08;18.35;;;;;;;18.03;86.02;99669.94;10374978;28;20470;-71
2023/05/23 10:16:27;;;;;;;15.15;14.07;;;;;;;18.23;83.26;99671.19;10339212;28;20518;-71
2023/05/23 10:21:43;;;;;;;12.10;11.30;;;;;;;18.21;78.60;99673.13;10374789;28;20057;-71
2023/05/23 10:26:47;;;;;;;12.00;10.82;;;;;;;18.76;78.58;99675.44;10374143;28;20376;-71
2023/05/23 10:31:51;;;;;;;11.32;10.52;;;;;;;18.87;77.82;99680.88;10373315;28;20136;-71
2023/05/23 10:37:19;;;;;;;11.75;10.95;;;;;;;19.17;74.98;99687.63;10374544;28;20583;-70
2023/05/23 10:42:39;;;;;;;11.82;11.02;;;;;;;18.84;76.35;99696.22;10376087;28;20128;-70
2023/05/23 10:47:41;;;;;;;9.98;9.25;;;;;;;18.36;77.76;99696.00;10381838;28;20062;-71
2023/05/23 10:52:43;;;;;;;10.20;9.45;;;;;;;18.78;75.48;99702.00;10382047;28;20050;-70
2023/05/23 10:57:45;;;;;;;10.13;9.38;;;;;;;18.98;76.21;99698.72;10380737;28;20042;-71
2023/05/23 11:02:59;;;;;;;10.68;9.80;;;;;;;18.80;76.53;99702.72;10381572;28;20049;-71
2023/05/23 11:08:14;;;;;;;11.70;10.90;;;;;;;18.97;75.54;99697.03;10382036;28;20042;-70
2023/05/23 11:13:16;;;;;;;11.43;10.68;;;;;;;19.14;73.01;99701.16;10381132;28;20124;-69
2023/05/23 11:18:23;;;;;;;11.02;10.20;;;;;;;19.12;73.09;99703.06;10380862;28;20042;-71
2023/05/23 11:23:39;;;;;;;10.68;9.93;;;;;;;19.06;75.69;99709.69;10381081;28;20046;-71
2023/05/23 11:28:57;;;;;;;9.60;8.80;;;;;;;18.97;73.35;99710.34;10380781;28;20108;-71
2023/05/23 11:34:00;;;;;;;10.82;10.02;;;;;;;18.89;76.34;99715.38;10378867;28;20423;-71
2023/05/23 11:39:02;;;;;;;10.55;9.85;;;;;;;18.94;75.92;99713.22;10380444;28;20045;-71
2023/05/23 11:44:12;;;;;;;11.10;10.40;;;;;;;19.01;74.25;99713.66;10379673;28;20119;-71
2023/05/23 11:49:13;;;;;;;11.05;9.95;;;;;;;19.01;74.85;99703.00;10380146;28;20125;-71
2023/05/23 11:54:15;;;;;;;10.95;10.02;;;;;;;18.95;75.65;99708.75;10378335;28;20048;-71
2023/05/23 11:59:17;;;;;;;10.20;9.52;;;;;;;19.26;73.29;99708.25;10378091;28;20070;-71
2023/05/23 12:04:19;;;;;;;10.20;9.50;;;;;;;19.05;72.85;99702.66;10379685;28;20046;-71
2023/05/23 12:09:21;;;;;;;11.55;10.75;;;;;;;19.35;71.78;99693.41;10378129;28;20061;-70
2023/05/23 12:14:27;;;;;;;11.38;10.68;;;;;;;19.67;69.98;99693.72;10379012;28;20080;-70
2023/05/23 12:19:29;;;;;;;10.02;9.40;;;;;;;20.10;72.33;99691.31;10378003;28;20040;-71
2023/05/23 12:24:31;;;;;;;10.13;9.30;;;;;;;20.12;68.92;99694.72;10379427;28;20072;-71
2023/05/23 12:29:34;;;;;;;9.43;8.85;;;;;;;20.25;68.21;99693.78;10377042;28;20065;-71
2023/05/23 12:34:41;;;;;;;9.30;8.80;;;;;;;19.96;68.73;99707.50;10377863;28;20039;-71
2023/05/23 12:39:44;;;;;;;10.13;9.50;;;;;;;19.19;73.07;99709.66;10378286;28;20419;-71
2023/05/23 12:44:50;;;;;;;7.57;7.07;;;;;;;18.71;71.49;99708.69;10378227;28;20100;-71
2023/05/23 12:49:51;;;;;;;6.88;6.38;;;;;;;18.67;72.10;99722.19;10378216;28;20399;-71
2023/05/23 12:54:53;;;;;;;6.80;6.40;;;;;;;18.37;73.81;99719.00;10376771;28;20050;-71
2023/05/23 12:59:55;;;;;;;9.65;8.85;;;;;;;18.17;76.61;99724.84;10378129;28;20042;-71
2023/05/23 13:04:57;;;;;;;9.35;8.75;;;;;;;18.05;79.30;99721.19;10377983;28;20101;-71
2023/05/23 13:09:59;;;;;;;8.80;8.00;;;;;;;17.91;81.66;99732.75;10378233;28;20399;-71
2023/05/23 13:15:01;;;;;;;6.72;6.22;;;;;;;17.90;79.08;99737.22;10378255;28;20495;-70
2023/05/23 13:20:03;;;;;;;5.88;5.38;;;;;;;17.52;80.37;99731.75;10378343;28;20061;-70
2023/05/23 13:25:07;;;;;;;5.10;4.80;;;;;;;17.53;80.10;99740.56;10378263;28;20054;-70
2023/05/23 13:30:09;;;;;;;6.18;5.78;;;;;;;17.22;85.77;99744.34;10378048;28;20515;-70
2023/05/23 13:35:11;;;;;;;6.80;6.30;;;;;;;17.15;90.72;99752.72;10378442;28;20065;-70
2023/05/23 13:40:18;;;;;;;8.25;7.75;;;;;;;16.97;92.31;99743.25;10376908;28;20046;-70
2023/05/23 13:45:21;;;;;;;8.75;7.93;;;;;;;16.72;94.23;99756.31;10377241;28;20391;-70
2023/05/23 13:50:23;;;;;;;7.25;6.68;;;;;;;16.45;96.02;99761.50;10374802;28;20038;-70
2023/05/23 13:55:26;;;;;;;6.55;6.05;;;;;;;16.36;99.08;99765.56;10377329;28;20438;-70
2023/05/23 14:00:28;;;;;;;6.25;5.85;;;;;;;16.28;100.00;99762.50;10375879;28;20049;-70
2023/05/23 14:05:29;;;;;;;6.20;5.80;;;;;;;16.29;100.00;99764.19;10376389;28;20116;-70
2023/05/23 14:10:34;;;;;;;6.07;5.57;;;;;;;16.54;100.00;99767.09;10376154;28;20042;-71
2023/05/23 14:15:37;;;;;;;5.13;4.68;;;;;;;16.46;99.99;99765.84;10376293;28;20041;-70
2023/05/23 14:20:39;;;;;;;2.67;2.47;;;;;;;16.40;96.54;99778.53;10375561;28;20129;-71
2023/05/23 14:25:41;;;;;;;2.58;2.38;;;;;;;16.46;92.06;99781.78;10374859;28;20046;-72
2023/05/23 14:30:43;;;;;;;3.67;2.40;;;;;;;16.24;94.79;99777.75;10376189;28;20484;-72
2023/05/23 14:35:45;;;;;;;3.15;2.17;;;;;;;16.38;93.42;99779.59;10373531;28;20053;-70
2023/05/23 14:40:47;;;;;;;2.78;2.58;;;;;;;16.35;95.49;99787.72;10375040;28;20049;-70
2023/05/23 14:45:49;;;;;;;2.97;2.78;;;;;;;16.37;97.85;99794.63;10374872;28;20045;-70
2023/05/23 14:50:51;;;;;;;4.57;3.85;;;;;;;16.31;100.00;99795.00;10374857;28;20041;-70
2023/05/23 14:55:53;;;;;;;5.25;4.95;;;;;;;16.05;100.00;99793.88;10374242;28;20045;-70
2023/05/23 15:00:56;;;;;;;5.38;4.97;;;;;;;16.00;100.00;99797.75;10374113;28;20042;-70
2023/05/23 15:05:58;;;;;;;6.45;5.93;;;;;;;16.13;100.00;99809.34;10374325;28;20042;-70
2023/05/23 15:11:00;;;;;;;5.95;5.50;;;;;;;16.05;99.68;99806.28;10374245;28;20045;-70
2023/05/23 15:16:02;;;;;;;5.18;4.78;;;;;;;16.02;98.51;99815.25;10374090;28;20389;-71
2023/05/23 15:21:04;;;;;;;5.80;5.40;;;;;;;15.91;98.22;99814.19;10374491;28;20056;-71
2023/05/23 15:26:06;;;;;;;5.57;5.15;;;;;;;15.89;98.70;99808.94;10374922;28;20124;-71
2023/05/23 15:31:08;;;;;;;5.68;5.32;;;;;;;16.10;97.55;99807.72;10379424;28;20120;-71
2023/05/23 15:36:11;;;;;;;5.60;5.22;;;;;;;15.88;94.85;99805.44;10380654;28;20045;-71
2023/05/23 15:41:15;;;;;;;6.88;5.30;;;;;;;15.58;99.43;99815.09;10381211;28;20042;-71
2023/05/23 15:46:17;;;;;;;4.88;4.47;;;;;;;15.49;100.00;99816.47;10380589;28;20124;-72
2023/05/23 15:51:19;;;;;;;4.00;3.70;;;;;;;15.32;100.00;99816.56;10381182;28;20053;-71
2023/05/23 15:56:21;;;;;;;2.97;2.78;;;;;;;15.03;100.00;99820.78;10381332;28;20076;-71
2023/05/23 16:01:23;;;;;;;3.40;3.10;;;;;;;15.06;100.00;99826.78;10393801;22;20064;-70
2023/05/23 16:06:26;;;;;;;2.90;2.60;;;;;;;14.97;100.00;99834.34;10380746;28;20049;-71
2023/05/23 16:11:28;;;;;;;3.35;3.15;;;;;;;14.84;100.00;99834.13;10381357;28;20041;-69
2023/05/23 16:16:30;;;;;;;3.33;3.10;;;;;;;14.71;100.00;99836.56;10382269;28;20117;-70
2023/05/23 16:21:32;;;;;;;6.18;4.03;;;;;;;14.39;100.00;99844.31;10379076;28;20545;-69
2023/05/23 16:26:34;;;;;;;5.03;4.63;;;;;;;14.22;100.00;99841.66;10379783;28;20042;-70
2023/05/23 16:31:35;;;;;;;5.10;4.70;;;;;;;14.23;100.00;99837.25;10379132;28;20115;-69
2023/05/23 16:36:37;;;;;;;4.55;4.25;;;;;;;14.29;100.00;99837.78;10380296;28;20042;-70
2023/05/23 16:41:39;;;;;;;5.15;4.82;;;;;;;14.15;100.00;99842.91;10379766;28;20057;-69
2023/05/23 16:46:41;;;;;;;3.75;3.55;;;;;;;14.13;100.00;99842.97;10396581;28;20136;-71
2023/05/23 16:51:43;;;;;;;4.35;4.00;;;;;;;13.97;100.00;99854.38;10403340;28;20121;-70
2023/05/23 16:56:48;;;;;;;4.25;3.80;;;;;;;13.99;100.00;99852.50;10379098;28;20034;-69
2023/05/23 17:01:50;;;;;;;4.18;3.88;;;;;;;13.66;100.00;99853.19;10381142;28;20583;-70
2023/05/23 17:06:52;;;;;;;4.00;3.70;;;;;;;13.50;100.00;99853.09;10378247;28;20125;-70
2023/05/23 17:11:54;;;;;;;4.70;4.20;;;;;;;13.38;100.00;99864.19;10378796;28;20056;-71
2023/05/23 17:16:55;;;;;;;4.03;3.72;;;;;;;13.21;100.00;99867.56;10379153;28;20056;-69
2023/05/23 17:21:57;;;;;;;4.53;4.13;;;;;;;13.25;100.00;99876.25;10381281;28;20049;-69
2023/05/23 17:26:59;;;;;;;4.32;3.85;;;;;;;13.14;100.00;99880.16;10380084;28;20045;-70
2023/05/23 17:32:01;;;;;;;4.75;4.30;;;;;;;13.03;100.00;99890.38;10378410;28;20120;-69
2023/05/23 17:37:03;;;;;;;3.40;3.03;;;;;;;12.94;100.00;99892.56;10378330;28;20045;-69
2023/05/23 17:42:05;;;;;;;3.95;3.65;;;;;;;12.93;100.00;99909.31;10378353;28;20176;-69
2023/05/23 17:47:07;;;;;;;3.05;2.85;;;;;;;13.01;100.00;99920.38;10377159;28;20145;-69
2023/05/23 17:52:13;;;;;;;2.85;2.65;;;;;;;12.89;100.00;99934.97;10376044;28;20056;-70
2023/05/23 17:57:15;;;;;;;3.00;1.53;;;;;;;12.65;100.00;99933.34;10379746;28;20046;-71
2023/05/23 18:02:18;;;;;;;1.83;1.73;;;;;;;12.42;100.00;99929.88;10378463;28;20042;-70
2023/05/23 18:07:20;;;;;;;1.65;1.55;;;;;;;12.48;100.00;99929.63;10379563;28;20042;-69
2023/05/23 18:12:21;;;;;;;2.95;1.90;;;;;;;12.41;100.00;99937.88;10376159;28;20050;-70
2023/05/23 18:17:23;;;;;;;1.95;1.85;;;;;;;12.44;100.00;99946.53;10377338;28;20041;-71
2023/05/23 18:22:25;;;;;;;3.20;2.90;;;;;;;12.20;100.00;99943.06;10377147;28;20495;-71
2023/05/23 18:27:27;;;;;;;3.85;3.50;;;;;;;11.97;100.00;99951.88;10378207;28;20404;-70
2023/05/23 18:32:30;;;;;;;4.90;4.50;;;;;;;11.99;100.00;99962.34;10376730;28;20108;-70
2023/05/23 18:37:31;;;;;;;4.72;4.32;;;;;;;11.92;100.00;99974.06;10376279;28;20113;-71
2023/05/23 18:42:33;;;;;;;7.57;6.97;;;;;;;11.87;100.00;99982.16;10375850;28;20053;-70
2023/05/23 18:47:35;;;;;;;8.05;7.40;;;;;;;11.83;100.00;99988.44;10374723;28;20513;-70
2023/05/23 18:52:37;;;;;;;9.90;9.00;;;;;;;11.90;100.00;100002.22;10376796;28;20096;-70
2023/05/23 18:57:39;;;;;;;11.60;10.45;;;;;;;11.95;100.00;100011.66;10376457;28;20069;-70
2023/05/23 19:02:43;;;;;;;13.63;12.40;;;;;;;11.91;100.00;100019.75;10375834;28;20117;-70
2023/05/23 19:07:45;;;;;;;15.77;13.57;;;;;;;11.64;100.00;100035.59;10383341;28;20104;-69
2023/05/23 19:12:47;;;;;;;31.20;15.75;;;;;;;11.52;100.00;100039.56;10385241;28;20073;-71
2023/05/23 19:17:49;;;;;;;15.95;14.30;;;;;;;11.55;100.00;100049.09;10381854;28;20036;-71
2023/05/23 19:22:51;;;;;;;20.75;13.18;;;;;;;11.64;100.00;100048.75;10383405;28;20384;-71
2023/05/23 19:27:53;;;;;;;15.05;13.52;;;;;;;11.70;100.00;100060.88;10381409;28;20034;-70
2023/05/23 19:32:55;;;;;;;17.45;13.52;;;;;;;11.49;100.00;100078.28;10383205;28;20042;-70
2023/05/23 19:37:57;;;;;;;15.95;12.85;;;;;;;11.47;100.00;100085.38;10381416;28;20133;-70
2023/05/23 19:42:58;;;;;;;16.80;10.25;;;;;;;11.61;100.00;100091.03;10382629;28;20057;-71
2023/05/23 19:48:00;;;;;;;17.20;11.07;;;;;;;11.55;100.00;100100.00;10382189;28;20113;-70
2023/05/23 19:53:02;;;;;;;19.95;10.52;;;;;;;11.62;100.00;100103.28;10381119;28;20046;-70
2023/05/23 19:58:04;;;;;;;14.32;9.35;;;;;;;11.75;100.00;100101.06;10384239;28;20042;-70
2023/05/23 20:03:07;;;;;;;16.08;10.25;;;;;;;11.56;100.00;100117.50;10381369;28;20084;-70
2023/05/23 20:08:09;;;;;;;18.58;9.23;;;;;;;11.58;100.00;100125.34;10381288;28;20089;-70
2023/05/23 20:13:11;;;;;;;13.25;9.40;;;;;;;11.70;100.00;100124.06;10381266;28;20133;-71
2023/05/23 20:18:12;;;;;;;12.38;8.50;;;;;;;11.84;100.00;100129.75;10382893;28;20045;-69
2023/05/23 20:23:14;;;;;;;18.02;10.27;;;;;;;11.79;100.00;100129.88;10382270;28;20049;-70
2023/05/23 20:28:16;;;;;;;14.95;10.27;;;;;;;11.72;100.00;100140.66;10380619;28;20099;-70
2023/05/23 20:33:18;;;;;;;17.42;9.88;;;;;;;11.66;100.00;100147.00;10378862;28;20145;-70
2023/05/23 20:38:20;;;;;;;15.40;9.18;;;;;;;11.71;100.00;100141.59;10383064;28;20121;-70
2023/05/23 20:43:22;;;;;;;21.63;9.55;;;;;;;11.58;100.00;100151.69;10380871;28;20084;-71
2023/05/23 20:48:24;;;;;;;17.10;8.65;;;;;;;11.67;100.00;100153.13;10378410;28;20068;-71
2023/05/23 20:53:26;;;;;;;17.05;8.75;;;;;;;11.58;100.00;100162.19;10379963;28;20054;-71
2023/05/23 20:58:28;;;;;;;14.75;8.23;;;;;;;11.65;100.00;100166.38;10381497;28;20450;-70
2023/05/23 21:03:30;;;;;;;11.25;7.78;;;;;;;11.63;100.00;100174.28;10380854;28;20046;-70
2023/05/23 21:08:32;;;;;;;14.88;9.10;;;;;;;11.57;100.00;100171.88;10380515;28;20041;-69
2023/05/23 21:13:36;;;;;;;13.68;9.13;;;;;;;11.66;100.00;100175.97;10378583;28;20046;-69
2023/05/23 21:18:40;;;;;;;13.60;8.48;;;;;;;11.50;100.00;100178.25;10379410;28;20125;-69
2023/05/23 21:23:42;;;;;;;14.65;7.80;;;;;;;11.50;100.00;100172.97;10379903;28;20046;-69
2023/05/23 21:28:44;;;;;;;13.43;8.88;;;;;;;11.56;100.00;100179.84;10377334;28;20088;-69
2023/05/23 21:33:46;;;;;;;14.38;8.60;;;;;;;11.45;100.00;100182.81;10376474;28;20045;-70
2023/05/23 21:38:48;;;;;;;17.17;9.27;;;;;;;11.53;100.00;100186.06;10378251;28;20041;-71
2023/05/23 21:43:50;;;;;;;17.92;9.00;;;;;;;11.52;100.00;100184.34;10378853;28;20128;-70
2023/05/23 21:48:52;;;;;;;9.73;8.75;;;;;;;11.53;100.00;100193.94;10376435;28;20041;-70
2023/05/23 21:53:53;;;;;;;12.80;8.93;;;;;;;11.49;100.00;100189.69;10376678;28;20124;-69
2023/05/23 22:04:06;;;;;;;11.77;8.38;;;;;;;11.46;100.00;100197.69;10415201;28;20398;-70
2023/05/23 22:09:10;;;;;;;14.57;8.02;;;;;;;11.56;100.00;100198.28;10416645;28;20038;-70
2023/05/23 22:14:12;;;;;;;11.55;7.95;;;;;;;11.74;100.00;100197.66;10417108;28;20383;-70
2023/05/23 22:19:16;;;;;;;12.68;8.80;;;;;;;11.67;100.00;100204.03;10416280;28;20466;-70
2023/05/23 22:24:18;;;;;;;15.07;7.95;;;;;;;11.71;100.00;100208.28;10416361;28;20068;-69
2023/05/23 22:29:20;;;;;;;12.88;8.27;;;;;;;11.73;100.00;100205.56;10415491;28;20136;-69
2023/05/23 22:34:22;;;;;;;13.02;7.53;;;;;;;11.73;100.00;100209.09;10416831;28;20125;-70
2023/05/23 22:39:23;;;;;;;12.35;7.57;;;;;;;11.55;100.00;100214.94;10419014;28;20073;-70
2023/05/23 22:44:25;;;;;;;13.32;6.75;;;;;;;11.63;100.00;100224.31;10424593;28;20033;-70
2023/05/23 22:49:28;;;;;;;15.43;7.43;;;;;;;11.46;100.00;100213.47;10424395;28;20083;-70
2023/05/23 22:54:30;;;;;;;17.48;5.60;;;;;;;11.58;100.00;100202.56;10424180;28;20043;-70
2023/05/23 22:59:32;;;;;;;13.30;5.22;;;;;;;11.57;100.00;100211.38;10423920;28;20043;-71
2023/05/23 23:04:34;;;;;;;12.25;5.75;;;;;;;11.61;99.28;100196.34;10422638;28;20034;-71
2023/05/23 23:09:36;;;;;;;12.95;5.07;;;;;;;11.46;100.00;100208.22;10423619;28;20037;-71